createdAt,value
2023-04-28T00:01:20.965Z,3.55
2023-04-28T00:05:25.570Z,3.92
2023-04-28T00:09:28.763Z,4.03
2023-04-28T00:13:31.790Z,3.50
2023-04-28T00:17:35.128Z,3.42
2023-04-28T00:21:39.848Z,3.22
2023-04-28T00:25:42.909Z,3.33
2023-04-28T00:29:46.002Z,3.85
2023-04-28T00:33:52.838Z,3.00
2023-04-28T00:37:57.261Z,3.28
2023-04-28T00:42:00.432Z,3.03
2023-04-28T00:46:03.772Z,3.00
2023-04-28T00:50:07.810Z,3.53
2023-04-28T00:54:15.312Z,3.20
2023-04-28T00:58:18.654Z,3.53
2023-04-28T01:02:21.926Z,3.47
2023-04-28T01:06:25.480Z,3.08
2023-04-28T01:10:33.665Z,3.70
2023-04-28T01:14:44.534Z,3.28
2023-04-28T01:18:49.242Z,3.72
2023-04-28T01:22:52.352Z,3.63
2023-04-28T01:26:57.257Z,3.30
2023-04-28T01:31:00.311Z,3.35
2023-04-28T01:35:03.714Z,3.65
2023-04-28T01:39:07.018Z,3.65
2023-04-28T01:43:11.512Z,4.00
2023-04-28T01:47:14.601Z,4.00
2023-04-28T01:51:17.791Z,4.13
2023-04-28T01:55:21.577Z,3.72
2023-04-28T01:59:27.030Z,3.72
2023-04-28T02:03:30.567Z,3.50
2023-04-28T02:07:33.818Z,3.70
2023-04-28T02:11:36.948Z,4.03
2023-04-28T02:15:42.732Z,4.13
2023-04-28T02:19:45.781Z,3.55
2023-04-28T02:23:50.538Z,3.90
2023-04-28T02:27:53.628Z,3.65
2023-04-28T02:31:58.133Z,3.90
2023-04-28T02:36:01.480Z,4.47
2023-04-28T02:40:05.201Z,3.60
2023-04-28T02:44:08.218Z,3.95
2023-04-28T02:48:12.714Z,4.47
2023-04-28T02:52:16.003Z,3.90
2023-04-28T02:56:19.323Z,4.10
2023-04-28T03:00:22.610Z,4.22
2023-04-28T03:04:28.624Z,3.75
2023-04-28T03:08:31.867Z,4.35
2023-04-28T03:12:34.904Z,4.25
2023-04-28T03:16:38.031Z,3.75
2023-04-28T03:20:42.625Z,4.20
2023-04-28T03:24:46.090Z,4.70
2023-04-28T03:28:49.137Z,4.15
2023-04-28T03:32:52.883Z,4.72
2023-04-28T03:36:57.349Z,4.47
2023-04-28T03:41:05.506Z,4.45
2023-04-28T03:45:31.654Z,4.03
2023-04-28T03:49:35.078Z,4.40
2023-04-28T03:53:39.775Z,4.30
2023-04-28T03:57:43.256Z,4.32
2023-04-28T04:01:46.268Z,4.47
2023-04-28T04:05:49.698Z,4.70
2023-04-28T04:09:54.184Z,4.53
2023-04-28T04:13:57.382Z,4.70
2023-04-28T04:18:01.970Z,4.55
2023-04-28T04:22:14.328Z,4.50
2023-04-28T04:26:19.182Z,4.63
2023-04-28T04:30:24.500Z,4.75
2023-04-28T04:34:27.665Z,4.57
2023-04-28T04:38:31.159Z,5.20
2023-04-28T04:42:39.997Z,4.45
2023-04-28T04:46:46.170Z,5.03
2023-04-28T04:50:49.752Z,4.85
2023-04-28T04:54:53.216Z,5.07
2023-04-28T04:58:57.980Z,4.97
2023-04-28T05:03:24.410Z,5.32
2023-04-28T05:07:27.948Z,5.32
2023-04-28T05:11:32.342Z,5.07
2023-04-28T05:15:37.038Z,5.32
2023-04-28T05:19:57.351Z,5.03
2023-04-28T05:24:00.874Z,4.82
2023-04-28T05:28:07.566Z,4.90
2023-04-28T05:32:12.467Z,5.45
2023-04-28T05:36:17.079Z,5.50
2023-04-28T05:40:22.309Z,5.00
2023-04-28T05:44:25.768Z,5.47
2023-04-28T05:48:30.259Z,5.07
2023-04-28T05:52:33.390Z,5.10
2023-04-28T05:56:36.654Z,5.53
2023-04-28T06:00:39.962Z,5.20
2023-04-28T06:04:44.886Z,5.03
2023-04-28T06:08:48.160Z,5.40
2023-04-28T06:12:51.200Z,5.10
2023-04-28T06:16:54.282Z,5.13
2023-04-28T06:20:58.706Z,4.45
2023-04-28T06:25:01.818Z,4.50
2023-04-28T06:29:10.825Z,4.53
2023-04-28T06:33:13.929Z,4.65
2023-04-28T06:37:19.074Z,3.90
2023-04-28T06:41:24.068Z,3.90
2023-04-28T06:45:28.693Z,3.67
2023-04-28T06:49:33.232Z,3.60
2023-04-28T06:53:38.379Z,3.38
2023-04-28T07:01:47.780Z,3.55
2023-04-28T07:05:51.132Z,3.83
2023-04-28T07:09:56.036Z,3.47
2023-04-28T07:13:59.055Z,3.40
2023-04-28T07:18:02.149Z,2.90
2023-04-28T07:22:05.433Z,3.13
2023-04-28T07:26:09.832Z,3.30
2023-04-28T07:30:26.531Z,3.40
2023-04-28T07:34:30.726Z,3.90
2023-04-28T07:38:35.272Z,3.40
2023-04-28T07:42:39.668Z,3.45
2023-04-28T07:46:42.778Z,3.65
2023-04-28T07:50:45.978Z,3.80
2023-04-28T07:54:49.021Z,3.28
2023-04-28T07:58:53.810Z,3.00
2023-04-28T08:02:57.786Z,2.95
2023-04-28T08:07:01.088Z,3.00
2023-04-28T08:11:04.214Z,3.13
2023-04-28T08:15:10.381Z,2.83
2023-04-28T08:19:13.433Z,2.80
2023-04-28T08:23:16.556Z,2.75
2023-04-28T08:27:19.666Z,2.50
2023-04-28T08:31:24.177Z,2.85
2023-04-28T08:35:27.503Z,2.70
2023-04-28T08:39:31.770Z,2.95
2023-04-28T08:43:36.349Z,2.53
2023-04-28T08:47:45.950Z,2.45
2023-04-28T08:51:54.283Z,2.00
2023-04-28T08:55:59.042Z,2.15
2023-04-28T09:00:02.747Z,2.28
2023-04-28T09:04:08.375Z,2.15
2023-04-28T09:08:12.332Z,2.45
2023-04-28T09:12:15.385Z,2.10
2023-04-28T09:16:18.812Z,2.10
2023-04-28T09:20:24.392Z,2.03
2023-04-28T09:24:29.567Z,2.05
2023-04-28T09:28:33.247Z,2.25
2023-04-28T09:32:36.388Z,2.20
2023-04-28T09:36:40.789Z,2.42
2023-04-28T09:40:56.725Z,2.40
2023-04-28T09:45:00.172Z,2.38
2023-04-28T09:49:03.318Z,2.17
2023-04-28T09:53:13.098Z,2.10
2023-04-28T09:57:17.037Z,2.50
2023-04-28T10:01:20.276Z,2.30
2023-04-28T10:05:24.800Z,2.42
2023-04-28T10:09:29.709Z,2.15
2023-04-28T10:13:33.596Z,2.10
2023-04-28T10:17:38.404Z,1.90
2023-04-28T10:21:49.456Z,1.95
2023-04-28T10:25:58.251Z,2.03
2023-04-28T10:30:26.253Z,2.00
2023-04-28T10:34:31.437Z,1.98
2023-04-28T10:38:35.061Z,1.92
2023-04-28T10:42:56.459Z,1.90
2023-04-28T10:47:03.906Z,2.10
2023-04-28T10:51:34.924Z,2.10
2023-04-28T10:55:39.984Z,2.00
2023-04-28T10:59:44.412Z,1.88
2023-04-28T11:03:51.970Z,1.80
2023-04-28T11:08:33.293Z,1.77
2023-04-28T11:12:36.628Z,2.00
2023-04-28T11:16:51.809Z,1.70
2023-04-28T11:20:58.701Z,1.73
2023-04-28T11:25:03.213Z,1.60
2023-04-28T11:29:06.658Z,1.83
2023-04-28T11:33:11.289Z,1.98
2023-04-28T11:37:17.043Z,2.15
2023-04-28T11:41:21.125Z,2.08
2023-04-28T11:45:24.145Z,1.92
2023-04-28T11:49:30.400Z,1.77
2023-04-28T11:53:43.077Z,1.98
2023-04-28T11:57:46.384Z,1.67
2023-04-28T12:01:50.719Z,1.88
2023-04-28T12:05:55.330Z,2.22
2023-04-28T12:10:12.546Z,1.75
2023-04-28T12:14:15.935Z,1.73
2023-04-28T12:18:19.530Z,1.70
2023-04-28T12:22:24.872Z,1.98
2023-04-28T12:26:28.068Z,1.60
2023-04-28T12:30:33.439Z,1.75
2023-04-28T12:34:37.269Z,1.80
2023-04-28T12:38:49.066Z,1.98
2023-04-28T12:42:52.331Z,2.00
2023-04-28T12:46:56.186Z,1.77
2023-04-28T12:50:59.195Z,1.70
2023-04-28T12:55:03.598Z,1.95
2023-04-28T12:59:06.916Z,1.80
2023-04-28T13:03:10.245Z,1.65
2023-04-28T13:07:13.673Z,2.05
2023-04-28T13:11:22.379Z,1.60
2023-04-28T13:15:27.267Z,1.98
2023-04-28T13:19:31.270Z,1.63
2023-04-28T13:23:34.493Z,1.77
2023-04-28T13:27:40.107Z,1.73
2023-04-28T13:31:44.835Z,1.88
2023-04-28T13:35:47.939Z,1.70
2023-04-28T13:39:51.103Z,1.60
2023-04-28T13:43:55.734Z,1.70
2023-04-28T13:47:59.087Z,1.77
2023-04-28T13:52:03.635Z,1.70
2023-04-28T13:56:07.997Z,1.80
2023-04-28T14:00:13.700Z,1.42
2023-04-28T14:04:17.027Z,1.85
2023-04-28T14:08:20.878Z,1.80
2023-04-28T14:12:24.255Z,1.77
2023-04-28T14:16:29.101Z,1.90
2023-04-28T14:20:32.432Z,1.80
2023-04-28T14:24:35.612Z,1.98
2023-04-28T14:28:38.646Z,1.80
2023-04-28T14:32:43.116Z,2.10
2023-04-28T14:36:46.794Z,1.75
2023-04-28T14:40:50.157Z,2.25
2023-04-28T14:44:54.561Z,1.60
2023-04-28T14:48:59.450Z,2.05
2023-04-28T14:53:05.634Z,2.33
2023-04-28T14:57:08.769Z,2.00
2023-04-28T15:01:11.965Z,2.05
2023-04-28T15:05:16.397Z,2.30
2023-04-28T15:09:19.486Z,2.20
2023-04-28T15:13:25.223Z,2.15
2023-04-28T15:17:28.491Z,2.05
2023-04-28T15:21:33.008Z,2.20
2023-04-28T15:25:36.189Z,1.90
2023-04-28T15:29:39.226Z,1.90
2023-04-28T15:33:42.251Z,2.28
2023-04-28T15:37:49.138Z,2.17
2023-04-28T15:41:52.363Z,2.40
2023-04-28T15:45:55.627Z,2.47
2023-04-28T15:49:59.570Z,3.00
2023-04-28T15:54:03.968Z,2.92
2023-04-28T15:58:08.663Z,2.90
2023-04-28T16:02:11.663Z,2.67
2023-04-28T16:06:14.804Z,3.00
2023-04-28T16:10:19.209Z,2.67
2023-04-28T16:14:22.447Z,3.10
2023-04-28T16:18:25.747Z,2.75
2023-04-28T16:22:29.798Z,3.28
2023-04-28T16:26:34.314Z,3.72
2023-04-28T16:30:37.331Z,4.97
2023-04-28T16:34:40.362Z,6.35
2023-04-28T16:38:45.727Z,5.30
2023-04-28T16:42:50.855Z,5.65
2023-04-28T16:46:54.280Z,5.78
2023-04-28T16:50:57.340Z,6.13
2023-04-28T16:55:00.549Z,6.13
2023-04-28T16:59:04.979Z,6.03
2023-04-28T17:03:08.173Z,5.00
2023-04-28T17:07:11.505Z,4.30
2023-04-28T17:11:17.190Z,4.10
2023-04-28T17:15:21.853Z,3.97
2023-04-28T17:19:25.002Z,4.03
2023-04-28T17:23:28.278Z,4.38
2023-04-28T17:27:31.646Z,3.97
2023-04-28T17:31:38.787Z,4.20
2023-04-28T17:35:42.305Z,3.92
2023-04-28T17:39:45.333Z,4.22
2023-04-28T17:43:49.002Z,4.38
2023-04-28T17:47:53.467Z,4.15
2023-04-28T17:51:56.574Z,4.18
2023-04-28T17:56:01.555Z,4.45
2023-04-28T18:00:05.300Z,4.53
2023-04-28T18:04:16.253Z,4.75
2023-04-28T18:08:19.250Z,4.50
2023-04-28T18:12:22.364Z,4.60
2023-04-28T18:16:26.102Z,4.90
2023-04-28T18:20:30.600Z,4.70
2023-04-28T18:24:33.724Z,5.03
2023-04-28T18:28:37.663Z,4.55
2023-04-28T18:32:40.764Z,4.82
2023-04-28T18:36:45.250Z,4.63
2023-04-28T18:40:48.299Z,4.70
2023-04-28T18:44:53.821Z,4.80
2023-04-28T18:48:57.368Z,5.13
2023-04-28T18:53:02.520Z,4.88
2023-04-28T18:57:06.664Z,5.05
2023-04-28T19:01:14.883Z,5.50
2023-04-28T19:05:18.052Z,5.65
2023-04-28T19:09:22.612Z,5.90
2023-04-28T19:13:25.753Z,5.50
2023-04-28T19:17:29.553Z,5.68
2023-04-28T19:21:35.485Z,6.10
2023-04-28T19:25:40.011Z,6.32
2023-04-28T19:29:43.553Z,6.07
2023-04-28T19:33:46.541Z,5.57
2023-04-28T19:37:49.935Z,7.50
2023-04-28T19:41:54.867Z,6.20
2023-04-28T19:45:58.183Z,6.82
2023-04-28T19:50:01.492Z,7.63
2023-04-28T19:54:04.579Z,6.70
2023-04-28T19:58:10.157Z,6.13
2023-04-28T20:02:13.410Z,5.47
2023-04-28T20:06:17.744Z,5.95
2023-04-28T20:10:20.918Z,6.35
2023-04-28T20:14:25.772Z,6.30
2023-04-28T20:18:29.088Z,6.13
2023-04-28T20:22:32.372Z,6.68
2023-04-28T20:26:35.630Z,5.68
2023-04-28T20:30:41.980Z,5.85
2023-04-28T20:34:45.564Z,5.85
2023-04-28T20:38:49.203Z,5.93
2023-04-28T20:42:52.356Z,6.55
2023-04-28T20:46:57.303Z,6.78
2023-04-28T20:51:02.857Z,7.38
2023-04-28T20:55:07.049Z,6.75
2023-04-28T20:59:10.169Z,6.45
2023-04-28T21:03:15.844Z,6.28
2023-04-28T21:07:19.068Z,6.78
2023-04-28T21:11:22.091Z,6.78
2023-04-28T21:15:25.792Z,6.50
2023-04-28T21:19:30.375Z,6.78
2023-04-28T21:23:33.409Z,7.22
2023-04-28T21:27:36.478Z,6.78
2023-04-28T21:31:39.742Z,6.95
2023-04-28T21:35:44.307Z,7.60
2023-04-28T21:39:47.392Z,6.90
2023-04-28T21:43:50.383Z,6.97
2023-04-28T21:47:53.514Z,7.53
2023-04-28T21:51:58.020Z,7.88
2023-04-28T21:56:01.075Z,7.10
2023-04-28T22:00:06.366Z,8.15
2023-04-28T22:04:16.848Z,7.38
2023-04-28T22:08:21.747Z,8.00
2023-04-28T22:12:24.955Z,8.07
2023-04-28T22:16:28.377Z,8.02
2023-04-28T22:20:32.111Z,7.13
2023-04-28T22:24:37.185Z,7.30
2023-04-28T22:28:40.196Z,6.28
2023-04-28T22:32:44.666Z,6.35
2023-04-28T22:36:47.905Z,6.35
2023-04-28T22:40:52.611Z,7.10
2023-04-28T22:44:55.623Z,6.57
2023-04-28T22:48:59.022Z,6.93
2023-04-28T22:53:03.884Z,7.07
2023-04-28T22:57:08.276Z,7.07
2023-04-28T23:01:11.663Z,7.53
2023-04-28T23:05:14.879Z,6.95
2023-04-28T23:09:17.917Z,8.13
2023-04-28T23:13:22.392Z,7.72
2023-04-28T23:17:25.520Z,7.03
2023-04-28T23:21:29.494Z,7.60
2023-04-28T23:25:32.561Z,7.40
2023-04-28T23:29:37.818Z,7.80
2023-04-28T23:33:40.965Z,7.25
2023-04-28T23:37:44.264Z,8.02
2023-04-28T23:41:47.358Z,7.07
2023-04-28T23:45:51.935Z,7.30
2023-04-28T23:49:55.068Z,7.72
2023-04-28T23:53:58.076Z,7.97
2023-04-28T23:58:01.232Z,7.50
